Terminal Aerodrome Forecast
Issued by NWS

Home | Current Version | Previous Version | Text Only | Print | Product List | Glossary On
Versions: 1 2 3 4 5 6 7 8 9 10 11 12 13 14 15
000
FTAK31 PAFA 241429 AAA
TAFAOT
TAF AMD
PAOT 241429Z 2414/2512 24015KT 1 1/2SM -SN BR BKN015 BKN025 OVC035
     FM250300 21012KT 1 1/2SM -SN BR BKN007 OVC015=

USA.gov is the U.S. government's official web portal to all federal, state and local government web resources and services.